Time;durP1;ratioP1;P1;durP2;ratioP2;P2;SDS_P1;SDS_P2;PMS_P1;PMS_P2;Temp;Humidity;BMP_temperature;BMP_pressure;BME280_temperature;BME280_humidity;BME280_pressure;Samples;Min_cycle;Max_cycle;Signal;HPM_P1;HPM_P2
2023/10/23 00:02:11;;;;;;;21.20;12.93;;;;;;;16.36;88.58;92960.97;5050797;28;20240;-90
2023/10/23 00:04:36;;;;;;;22.93;13.80;;;;;;;16.30;88.46;92956.94;5050246;28;20222;-90
2023/10/23 00:07:02;;;;;;;20.90;12.10;;;;;;;16.34;88.46;92951.84;5050541;28;20737;-90
2023/10/23 00:09:27;;;;;;;20.53;12.60;;;;;;;16.31;89.06;92955.09;5039911;28;20225;-89
2023/10/23 00:11:52;;;;;;;27.57;12.77;;;;;;;16.27;89.06;92956.75;5073898;28;20197;-89
2023/10/23 00:14:18;;;;;;;17.60;13.33;;;;;;;16.23;89.48;92945.28;5044555;28;20230;-89
2023/10/23 00:16:43;;;;;;;25.17;13.07;;;;;;;16.26;89.74;92950.75;5046429;28;20174;-90
2023/10/23 00:19:08;;;;;;;21.33;13.33;;;;;;;16.20;89.88;92946.69;5049996;28;20233;-91
2023/10/23 00:21:34;;;;;;;23.17;13.60;;;;;;;16.20;89.72;92944.06;5050808;28;20189;-90
2023/10/23 00:23:59;;;;;;;22.63;12.20;;;;;;;16.21;90.16;92948.22;5044662;28;20222;-90
2023/10/23 00:26:25;;;;;;;22.83;12.80;;;;;;;15.96;90.83;92933.09;5046215;28;20187;-89
2023/10/23 00:28:51;;;;;;;24.30;12.40;;;;;;;16.08;90.69;92943.81;5041056;28;20224;-90
2023/10/23 00:31:16;;;;;;;24.23;13.10;;;;;;;16.18;90.40;92943.56;5049262;28;20202;-90
2023/10/23 00:33:41;;;;;;;24.90;13.40;;;;;;;16.20;90.48;92946.69;5039748;28;20226;-89
2023/10/23 00:36:07;;;;;;;21.10;12.00;;;;;;;16.14;90.58;92939.22;5047497;28;20205;-90
2023/10/23 00:38:32;;;;;;;21.23;12.53;;;;;;;16.07;90.82;92958.09;5050093;28;20232;-89
2023/10/23 00:40:58;;;;;;;21.70;12.23;;;;;;;16.13;90.94;92956.09;5048650;28;20187;-90
2023/10/23 00:43:24;;;;;;;23.53;13.13;;;;;;;16.00;91.25;92957.72;5048278;28;20297;-90
2023/10/23 00:45:55;;;;;;;24.87;12.27;;;;;;;15.99;91.36;92943.00;5040514;28;20214;-89
2023/10/23 00:48:22;;;;;;;19.40;12.13;;;;;;;15.95;91.74;92952.63;5038562;28;20232;-89
2023/10/23 00:50:49;;;;;;;22.93;13.23;;;;;;;15.99;91.59;92950.91;5041177;28;20197;-83
2023/10/23 00:53:16;;;;;;;26.07;13.07;;;;;;;16.01;91.71;92959.31;5047006;28;20222;-90
2023/10/23 00:55:41;;;;;;;25.93;13.63;;;;;;;16.02;91.57;92950.31;5037343;28;20197;-89
2023/10/23 00:58:07;;;;;;;21.43;14.20;;;;;;;16.01;91.89;92954.03;5049279;28;20214;-90
2023/10/23 01:00:35;;;;;;;28.27;13.37;;;;;;;16.03;91.84;92951.88;5040831;28;20185;-89
2023/10/23 01:03:01;;;;;;;24.23;13.53;;;;;;;16.06;91.60;92946.75;5048784;28;20372;-89
2023/10/23 01:05:26;;;;;;;27.43;13.10;;;;;;;16.00;91.89;92947.19;5049522;28;20257;-89
2023/10/23 01:07:52;;;;;;;24.93;13.07;;;;;;;16.09;91.29;92945.41;5048380;28;20177;-89
2023/10/23 01:10:17;;;;;;;24.17;13.60;;;;;;;15.95;91.99;92923.66;5047080;28;20196;-89
2023/10/23 01:12:43;;;;;;;21.83;12.63;;;;;;;16.07;91.65;92942.28;5049451;28;20232;-87
2023/10/23 01:15:08;;;;;;;21.93;12.87;;;;;;;16.05;91.81;92933.91;5049325;28;20193;-92
2023/10/23 01:17:34;;;;;;;20.60;12.67;;;;;;;16.12;91.67;92942.16;5048354;28;20205;-85
2023/10/23 01:19:59;;;;;;;31.60;12.77;;;;;;;15.93;92.37;92936.31;5049671;28;20260;-86
2023/10/23 01:22:25;;;;;;;22.17;12.53;;;;;;;16.15;91.98;92938.91;5049681;28;20252;-85
2023/10/23 01:24:51;;;;;;;27.30;12.47;;;;;;;16.24;90.53;92944.97;5048923;28;20222;-87
2023/10/23 01:27:17;;;;;;;26.13;13.50;;;;;;;16.28;90.63;92942.53;5044848;28;20185;-91
2023/10/23 01:29:42;;;;;;;23.30;12.83;;;;;;;16.18;91.62;92933.03;5035791;28;20238;-90
2023/10/23 01:32:09;;;;;;;28.53;14.20;;;;;;;16.18;91.67;92945.41;5049492;28;20312;-94
2023/10/23 01:34:34;;;;;;;25.87;12.40;;;;;;;16.02;92.88;92942.41;5049162;28;20213;-88
2023/10/23 01:37:00;;;;;;;28.33;13.47;;;;;;;16.16;92.26;92940.47;5049796;28;20194;-89
2023/10/23 01:39:25;;;;;;;26.37;13.27;;;;;;;16.23;91.58;92932.13;5048783;28;20271;-89
2023/10/23 01:41:51;;;;;;;26.40;12.20;;;;;;;16.32;91.85;92938.19;5049662;28;20287;-88
2023/10/23 01:44:16;;;;;;;23.50;13.07;;;;;;;16.34;91.50;92941.31;5049070;28;20221;-90
2023/10/23 01:46:41;;;;;;;24.90;13.30;;;;;;;16.25;91.55;92933.34;5048728;28;20233;-89
2023/10/23 01:49:07;;;;;;;26.03;12.23;;;;;;;16.34;91.30;92938.66;5049065;28;20229;-89
2023/10/23 01:51:32;;;;;;;22.10;13.40;;;;;;;16.33;91.48;92945.03;5046622;28;20181;-91
2023/10/23 01:53:57;;;;;;;18.23;12.73;;;;;;;16.33;91.67;92934.50;5048960;28;20221;-91
2023/10/23 01:56:23;;;;;;;14.90;12.80;;;;;;;16.30;91.59;92941.13;5031901;28;20177;-91
2023/10/23 01:58:50;;;;;;;18.37;11.87;;;;;;;16.31;91.78;92947.19;5049242;28;20281;-92
2023/10/23 02:01:20;;;;;;;21.90;13.20;;;;;;;16.23;91.66;92938.19;5040989;28;20270;-91
2023/10/23 02:03:46;;;;;;;22.43;13.23;;;;;;;16.24;91.73;92946.84;5049138;28;20210;-87
2023/10/23 02:06:11;;;;;;;22.10;12.70;;;;;;;16.29;91.49;92955.41;5048899;28;20212;-90
2023/10/23 02:08:36;;;;;;;24.10;12.10;;;;;;;16.28;91.31;92948.56;5047122;28;20217;-87
2023/10/23 02:11:02;;;;;;;21.60;12.77;;;;;;;16.26;91.46;92948.09;5034971;28;20182;-91
2023/10/23 02:13:28;;;;;;;21.17;12.80;;;;;;;16.32;91.63;92948.72;5048577;28;20252;-89
2023/10/23 02:15:54;;;;;;;18.93;12.67;;;;;;;16.35;91.27;92951.53;5049549;28;20181;-90
2023/10/23 02:18:19;;;;;;;25.73;13.93;;;;;;;16.36;91.29;92955.72;5048697;28;20273;-90
2023/10/23 02:20:44;;;;;;;15.87;12.20;;;;;;;16.32;91.69;92951.38;5043436;28;20218;-90
2023/10/23 02:23:10;;;;;;;17.57;13.47;;;;;;;16.27;92.27;92954.91;5048713;28;20232;-91
2023/10/23 02:25:35;;;;;;;28.57;14.73;;;;;;;16.35;92.08;92948.91;5048818;28;20190;-90
2023/10/23 02:28:00;;;;;;;22.20;13.13;;;;;;;16.25;92.10;92954.44;5052202;28;20232;-91
2023/10/23 02:30:26;;;;;;;22.67;13.93;;;;;;;16.22;92.35;92951.66;5053131;28;20194;-90
2023/10/23 02:32:51;;;;;;;23.13;12.93;;;;;;;16.06;92.93;92951.28;5052322;28;20201;-90
2023/10/23 02:35:17;;;;;;;20.23;12.20;;;;;;;16.07;93.35;92944.91;5052799;28;20189;-85
2023/10/23 02:37:42;;;;;;;16.30;13.73;;;;;;;16.05;93.58;92944.44;5050368;28;20206;-84
2023/10/23 02:40:08;;;;;;;30.97;13.07;;;;;;;16.03;94.03;92946.63;5052985;28;20175;-86
2023/10/23 02:42:33;;;;;;;26.27;14.40;;;;;;;16.01;93.75;92940.88;5051330;28;20194;-89
2023/10/23 02:44:59;;;;;;;28.63;12.40;;;;;;;15.93;93.83;92925.78;5061168;28;20834;-84
2023/10/23 02:47:24;;;;;;;25.80;13.30;;;;;;;15.84;94.13;92917.09;5051689;28;20190;-89
2023/10/23 02:49:53;;;;;;;16.23;11.50;;;;;;;16.00;94.00;92941.94;5052456;28;20251;-90
2023/10/23 02:52:18;;;;;;;20.57;12.60;;;;;;;15.87;94.46;92948.06;5052652;28;20224;-86
2023/10/23 02:54:45;;;;;;;21.23;12.50;;;;;;;15.57;94.31;92896.97;5050520;28;20253;-89
2023/10/23 02:57:10;;;;;;;25.37;13.33;;;;;;;15.79;95.11;92952.22;5059127;28;20182;-90
2023/10/23 02:59:36;;;;;;;21.10;13.07;;;;;;;15.72;95.62;92946.59;5052159;28;20221;-91
2023/10/23 03:02:02;;;;;;;25.67;12.10;;;;;;;15.29;98.83;92947.34;5052417;28;20192;-92
2023/10/23 03:04:27;;;;;;;22.63;13.90;;;;;;;15.43;98.21;92946.25;5052347;28;20214;-90
2023/10/23 03:06:52;;;;;;;23.00;13.43;;;;;;;15.50;97.41;92943.22;5051460;28;20222;-90
2023/10/23 03:09:18;;;;;;;27.13;13.53;;;;;;;15.52;97.18;92951.56;5051292;28;20213;-90
2023/10/23 03:11:43;;;;;;;19.57;13.20;;;;;;;15.53;97.22;92945.25;5052044;28;20190;-91
2023/10/23 03:14:10;;;;;;;21.67;12.80;;;;;;;15.55;97.15;92945.69;5051027;28;20301;-90
2023/10/23 03:16:35;;;;;;;32.97;14.47;;;;;;;15.61;97.05;92944.53;5050614;28;20274;-86
2023/10/23 03:19:00;;;;;;;23.07;13.07;;;;;;;15.52;97.13;92936.56;5042837;28;20234;-86
2023/10/23 03:21:26;;;;;;;21.00;12.63;;;;;;;15.59;97.14;92947.47;5051934;28;20250;-86
2023/10/23 03:23:51;;;;;;;21.47;12.60;;;;;;;15.66;96.83;92952.28;5051398;28;20218;-89
2023/10/23 03:26:16;;;;;;;20.17;12.83;;;;;;;15.78;95.11;92934.09;5051875;28;20189;-87
2023/10/23 03:28:42;;;;;;;17.83;12.37;;;;;;;15.75;95.61;92939.97;5043810;28;20220;-89
2023/10/23 03:31:07;;;;;;;19.13;12.67;;;;;;;15.86;95.81;92960.44;5051609;28;20198;-88
2023/10/23 03:33:33;;;;;;;25.43;13.43;;;;;;;15.82;95.87;92958.72;5051504;28;20206;-90
2023/10/23 03:35:58;;;;;;;25.60;13.40;;;;;;;15.92;95.36;92958.50;5049487;28;20196;-90
2023/10/23 03:38:24;;;;;;;18.70;12.53;;;;;;;15.84;95.23;92946.03;5050514;28;20226;-90
2023/10/23 03:40:59;;;;;;;26.67;13.73;;;;;;;15.86;95.80;92947.28;5049667;28;20182;-91
2023/10/23 03:43:25;;;;;;;28.33;13.30;;;;;;;15.54;96.85;92949.41;5042244;28;20273;-93
2023/10/23 03:45:50;;;;;;;30.73;14.20;;;;;;;15.59;96.95;92952.72;5048844;28;20340;-82
2023/10/23 03:48:16;;;;;;;27.87;14.03;;;;;;;15.82;96.58;92959.50;5041395;28;20230;-78
2023/10/23 03:50:41;;;;;;;20.43;13.07;;;;;;;15.76;97.30;92957.31;5045971;28;20187;-78
2023/10/23 03:53:07;;;;;;;27.67;13.57;;;;;;;15.77;96.96;92964.09;5041364;28;20755;-76
2023/10/23 03:55:37;;;;;;;22.33;14.20;;;;;;;15.80;96.50;92958.25;5050189;28;20174;-82
2023/10/23 03:58:02;;;;;;;23.70;13.03;;;;;;;15.81;96.32;92970.34;5046584;28;20237;-74
2023/10/23 04:00:29;;;;;;;21.40;12.50;;;;;;;15.78;96.12;92953.28;5047433;28;20182;-80
2023/10/23 04:02:54;;;;;;;15.93;13.07;;;;;;;15.83;96.11;92955.00;5049808;28;20217;-78
2023/10/23 04:05:20;;;;;;;20.63;12.40;;;;;;;15.98;95.47;92957.28;5039697;28;20183;-83
2023/10/23 04:07:45;;;;;;;21.47;12.87;;;;;;;16.02;94.92;92955.56;5040958;28;20201;-85
2023/10/23 04:10:13;;;;;;;17.57;13.67;;;;;;;15.92;95.62;92961.88;5049537;28;20199;-88
2023/10/23 04:12:39;;;;;;;24.63;12.93;;;;;;;15.97;95.15;92943.31;5034782;28;20186;-86
2023/10/23 04:15:05;;;;;;;20.40;12.57;;;;;;;15.97;94.96;92953.06;5066294;28;20271;-81
2023/10/23 04:17:30;;;;;;;30.43;13.87;;;;;;;16.07;95.29;92955.44;5068429;28;20182;-82
2023/10/23 04:19:56;;;;;;;22.30;12.00;;;;;;;16.04;95.46;92958.69;5072005;28;20256;-85
2023/10/23 04:22:21;;;;;;;27.97;13.90;;;;;;;16.01;95.39;92957.44;5062071;28;20185;-80
2023/10/23 04:24:47;;;;;;;26.77;13.20;;;;;;;16.08;95.20;92957.78;5077195;28;20220;-82
2023/10/23 04:27:13;;;;;;;24.67;12.77;;;;;;;15.97;95.51;92963.59;5064706;28;20190;-83
2023/10/23 04:29:38;;;;;;;26.10;13.37;;;;;;;15.94;95.44;92974.75;5054838;28;20360;-76
2023/10/23 04:32:04;;;;;;;23.93;12.97;;;;;;;15.93;95.52;92970.56;5064089;28;20836;-78
2023/10/23 04:34:29;;;;;;;23.20;13.53;;;;;;;16.06;94.87;92967.06;5063715;28;20229;-86
2023/10/23 04:36:54;;;;;;;24.23;13.57;;;;;;;16.11;94.51;92969.56;5056283;28;20193;-88
2023/10/23 04:39:20;;;;;;;23.80;13.27;;;;;;;15.98;95.89;92975.72;5064751;28;20213;-80
2023/10/23 04:41:45;;;;;;;24.33;12.60;;;;;;;15.91;96.36;92980.59;5063009;28;20241;-88
2023/10/23 04:44:10;;;;;;;25.17;13.30;;;;;;;15.96;95.46;92972.59;5059663;28;20236;-84
2023/10/23 04:46:36;;;;;;;22.37;13.07;;;;;;;16.14;94.11;92968.94;5068909;28;20227;-85
2023/10/23 04:49:01;;;;;;;25.37;12.73;;;;;;;16.25;93.82;92972.88;5051379;28;20251;-86
2023/10/23 04:51:26;;;;;;;26.30;13.13;;;;;;;16.21;95.07;92979.06;5066271;28;20170;-86
2023/10/23 04:53:52;;;;;;;30.73;13.87;;;;;;;16.21;94.92;92973.78;5057735;28;21020;-87
2023/10/23 04:56:17;;;;;;;33.13;13.03;;;;;;;16.24;94.58;92973.97;5044680;28;20229;-82
2023/10/23 04:58:43;;;;;;;22.20;12.97;;;;;;;16.32;93.67;92972.44;5036020;28;20246;-82
2023/10/23 05:01:18;;;;;;;24.00;13.33;;;;;;;16.30;94.74;92979.88;5031451;28;20190;-79
2023/10/23 05:03:43;;;;;;;33.23;13.87;;;;;;;16.36;94.38;92974.16;5040158;28;20232;-87
2023/10/23 05:06:09;;;;;;;28.43;12.83;;;;;;;16.48;93.43;92977.03;5047737;28;20253;-85
2023/10/23 05:08:34;;;;;;;23.67;13.00;;;;;;;16.38;93.19;92969.38;5044252;28;20241;-83
2023/10/23 05:11:07;;;;;;;24.70;13.27;;;;;;;16.45;93.15;92990.06;5037696;28;20214;-84
2023/10/23 05:13:32;;;;;;;26.67;13.50;;;;;;;16.26;94.93;92992.91;5043555;28;20233;-82
2023/10/23 05:16:05;;;;;;;27.17;13.83;;;;;;;16.28;94.66;92985.44;5047147;28;20186;-85
2023/10/23 05:18:34;;;;;;;33.67;13.80;;;;;;;16.45;93.92;92988.16;5042021;28;20250;-81
2023/10/23 05:21:09;;;;;;;21.03;12.93;;;;;;;16.45;93.44;92976.88;5035283;28;20229;-85
2023/10/23 05:23:36;;;;;;;27.27;13.63;;;;;;;16.39;94.93;92996.50;5037614;28;20226;-82
2023/10/23 05:26:01;;;;;;;23.10;12.87;;;;;;;16.34;95.46;93015.88;5048290;28;20190;-82
2023/10/23 05:28:26;;;;;;;25.57;14.23;;;;;;;16.49;93.71;92999.69;5046246;28;20256;-80
2023/10/23 05:30:52;;;;;;;24.30;13.10;;;;;;;16.94;91.47;93008.19;5047012;28;20182;-81
2023/10/23 05:33:17;;;;;;;21.37;13.50;;;;;;;16.74;92.58;93008.75;5045087;28;20218;-83
2023/10/23 05:35:43;;;;;;;22.90;14.03;;;;;;;16.52;93.31;93009.63;5043912;28;20190;-85
2023/10/23 05:38:08;;;;;;;27.30;13.57;;;;;;;16.83;91.94;93002.41;5044948;28;20240;-81
2023/10/23 05:40:34;;;;;;;27.60;14.87;;;;;;;17.09;89.47;92992.69;5046911;28;20194;-82
2023/10/23 05:42:59;;;;;;;28.80;13.70;;;;;;;17.01;90.09;93001.38;5048580;28;20281;-82
2023/10/23 05:45:24;;;;;;;25.60;13.13;;;;;;;16.94;90.97;93018.72;5048698;28;20294;-82
2023/10/23 05:47:50;;;;;;;31.27;12.83;;;;;;;16.88;92.03;93004.94;5047345;28;20178;-81
2023/10/23 05:50:15;;;;;;;23.00;13.30;;;;;;;16.50;94.83;93011.00;5048723;28;20202;-82
2023/10/23 05:52:41;;;;;;;28.33;15.20;;;;;;;16.37;95.18;93015.25;5047628;28;20185;-81
2023/10/23 05:55:08;;;;;;;25.00;13.70;;;;;;;16.55;94.46;93014.28;5048451;28;20883;-82
2023/10/23 05:57:34;;;;;;;29.80;14.20;;;;;;;16.80;92.81;93000.41;5038769;28;20173;-81
2023/10/23 05:59:59;;;;;;;32.70;13.50;;;;;;;16.85;92.84;93010.81;5048899;28;20230;-82
2023/10/23 06:02:25;;;;;;;26.53;12.33;;;;;;;16.80;94.01;93003.03;5053067;28;20265;-82
2023/10/23 06:04:51;;;;;;;31.47;14.00;;;;;;;16.60;95.12;93014.16;5050026;28;20214;-82
2023/10/23 06:07:16;;;;;;;23.03;13.53;;;;;;;16.67;95.53;93009.19;5052216;28;20198;-82
2023/10/23 06:09:42;;;;;;;32.57;13.90;;;;;;;16.62;95.91;93016.47;5039874;28;20219;-82
2023/10/23 06:12:09;;;;;;;26.97;13.57;;;;;;;16.70;94.45;93013.84;5049717;28;20253;-83
2023/10/23 06:14:34;;;;;;;36.90;14.80;;;;;;;16.82;94.44;93015.91;5046340;28;20232;-82
2023/10/23 06:17:00;;;;;;;26.67;14.30;;;;;;;16.98;93.37;93017.81;5037651;28;20171;-83
2023/10/23 06:19:25;;;;;;;27.63;14.20;;;;;;;17.04;92.71;93018.44;5035016;28;20219;-82
2023/10/23 06:21:50;;;;;;;35.00;14.03;;;;;;;16.91;94.03;93030.69;5052043;28;20218;-82
2023/10/23 06:24:16;;;;;;;36.93;15.10;;;;;;;16.61;94.80;93026.22;5051374;28;20217;-82
2023/10/23 06:26:41;;;;;;;25.50;14.27;;;;;;;16.70;94.10;93040.22;5052220;28;20189;-82
2023/10/23 06:29:06;;;;;;;33.30;14.70;;;;;;;16.64;94.39;93036.16;5052055;28;20234;-82
2023/10/23 06:31:32;;;;;;;30.93;15.73;;;;;;;16.60;94.08;93045.00;5040382;28;20245;-83
2023/10/23 06:33:57;;;;;;;32.40;15.90;;;;;;;16.41;96.29;93052.31;5049325;28;20210;-82
2023/10/23 06:36:22;;;;;;;30.43;15.47;;;;;;;16.90;93.85;93052.84;5038806;28;20174;-82
2023/10/23 06:38:48;;;;;;;24.47;15.10;;;;;;;17.23;91.12;93046.09;5051850;28;20225;-82
2023/10/23 06:41:13;;;;;;;30.50;16.30;;;;;;;17.15;91.53;93046.88;5051164;28;20898;-82
2023/10/23 06:43:39;;;;;;;35.87;17.03;;;;;;;16.80;94.63;93045.22;5040724;28;20227;-82
2023/10/23 06:46:04;;;;;;;29.30;16.30;;;;;;;16.78;93.46;93026.28;5048008;28;20230;-83
2023/10/23 06:48:30;;;;;;;46.60;16.47;;;;;;;17.30;92.27;93050.94;5051358;28;20225;-81
2023/10/23 06:50:56;;;;;;;32.90;17.00;;;;;;;17.65;90.07;93055.19;5052042;28;20178;-82
2023/10/23 06:53:21;;;;;;;30.47;15.10;;;;;;;17.45;90.34;93059.22;5043110;28;20237;-82
2023/10/23 06:55:51;;;;;;;34.17;18.10;;;;;;;17.53;89.61;93078.78;5049887;28;20171;-82
2023/10/23 06:58:18;;;;;;;45.00;17.47;;;;;;;18.12;86.69;93077.22;5050797;28;20228;-81
2023/10/23 07:00:44;;;;;;;31.97;16.87;;;;;;;18.37;85.17;93077.19;5052238;28;20257;-82
2023/10/23 07:03:09;;;;;;;28.80;17.03;;;;;;;18.18;87.03;93083.94;5046968;28;20219;-83
2023/10/23 07:05:34;;;;;;;28.87;18.23;;;;;;;18.03;86.65;93071.19;5036676;28;20178;-82
2023/10/23 07:08:00;;;;;;;32.90;16.67;;;;;;;18.07;87.23;93075.53;5049748;28;20215;-81
2023/10/23 07:10:25;;;;;;;40.27;16.00;;;;;;;18.25;85.52;93085.00;5051350;28;20631;-82
2023/10/23 07:12:51;;;;;;;24.33;15.47;;;;;;;18.27;85.86;93087.34;5038963;28;20191;-82
2023/10/23 07:15:16;;;;;;;25.63;15.40;;;;;;;18.41;85.32;93082.66;5044211;28;20202;-82
2023/10/23 07:17:41;;;;;;;30.77;15.43;;;;;;;18.85;83.65;93082.22;5049589;28;20208;-78
2023/10/23 07:20:07;;;;;;;26.00;15.23;;;;;;;18.88;82.72;93082.34;5049641;28;20191;-83
2023/10/23 07:22:33;;;;;;;38.13;16.10;;;;;;;18.31;84.42;93081.09;5043785;28;20192;-82
2023/10/23 07:24:59;;;;;;;32.13;17.60;;;;;;;18.10;85.05;93061.69;5043754;28;20210;-83
2023/10/23 07:27:25;;;;;;;36.20;15.93;;;;;;;18.46;83.98;93077.22;5043652;28;20184;-82
2023/10/23 07:29:51;;;;;;;31.80;14.50;;;;;;;18.75;82.54;93072.00;5049314;28;20222;-82
2023/10/23 07:32:17;;;;;;;28.07;15.27;;;;;;;18.95;81.19;93084.53;5049899;28;20186;-83
2023/10/23 07:34:42;;;;;;;29.33;14.43;;;;;;;18.66;83.12;93068.59;5050676;28;20263;-79
2023/10/23 07:37:08;;;;;;;26.43;15.03;;;;;;;18.88;82.06;93071.78;5043114;28;20196;-81
2023/10/23 07:39:33;;;;;;;27.70;14.67;;;;;;;18.42;84.35;93076.28;5050204;28;20250;-82
2023/10/23 07:41:58;;;;;;;31.50;16.20;;;;;;;18.44;84.65;93066.19;5051046;28;20187;-82
2023/10/23 07:44:24;;;;;;;28.47;14.77;;;;;;;18.50;83.91;93065.69;5049765;28;20222;-82
2023/10/23 07:46:49;;;;;;;29.60;14.77;;;;;;;19.06;81.09;93064.53;5052829;28;20247;-82
2023/10/23 07:49:16;;;;;;;31.90;14.40;;;;;;;18.88;81.45;93071.00;5050107;28;20239;-82
2023/10/23 07:51:41;;;;;;;32.67;15.17;;;;;;;19.14;80.81;93080.38;5050045;28;20186;-82
2023/10/23 07:54:07;;;;;;;34.37;15.30;;;;;;;19.27;79.48;93081.25;5045706;28;20224;-82
2023/10/23 07:56:32;;;;;;;30.70;16.40;;;;;;;18.83;82.63;93085.19;5048048;28;20180;-82
2023/10/23 07:58:58;;;;;;;30.50;15.87;;;;;;;18.82;82.72;93080.19;5042152;28;20255;-82
2023/10/23 08:01:24;;;;;;;31.93;15.10;;;;;;;19.05;80.39;93069.06;5048322;28;20262;-85
2023/10/23 08:03:49;;;;;;;35.80;15.73;;;;;;;19.01;81.03;93083.25;5045691;28;20289;-81
2023/10/23 08:06:15;;;;;;;28.67;15.10;;;;;;;18.84;81.39;93064.78;5049095;28;20222;-82
2023/10/23 08:08:41;;;;;;;41.17;15.67;;;;;;;18.85;81.21;93083.00;5048223;28;20229;-82
2023/10/23 08:11:09;;;;;;;38.27;14.63;;;;;;;18.46;82.69;93077.22;5048094;28;20198;-83
2023/10/23 08:13:35;;;;;;;29.87;14.33;;;;;;;18.82;81.52;93082.84;5048543;28;20243;-83
2023/10/23 08:16:01;;;;;;;40.30;14.03;;;;;;;18.92;80.84;93093.09;5050264;28;20179;-83
2023/10/23 08:18:26;;;;;;;28.47;14.77;;;;;;;19.40;78.06;93077.63;5034968;28;20257;-82
2023/10/23 08:20:52;;;;;;;33.67;14.43;;;;;;;19.63;77.24;93080.72;5042824;28;20196;-82
2023/10/23 08:23:17;;;;;;;27.90;15.70;;;;;;;19.68;76.49;93084.00;5046949;28;20223;-82
2023/10/23 08:25:44;;;;;;;31.87;14.00;;;;;;;19.13;78.34;93068.25;5047841;28;20188;-82
2023/10/23 08:28:10;;;;;;;40.10;18.83;;;;;;;19.15;79.34;93081.94;5039391;28;20231;-83
2023/10/23 08:30:35;;;;;;;36.87;14.90;;;;;;;19.15;79.06;93075.88;5049437;28;20248;-80
2023/10/23 08:33:01;;;;;;;29.60;15.50;;;;;;;19.41;78.71;93089.75;5051815;28;20469;-83
2023/10/23 08:35:29;;;;;;;34.30;15.23;;;;;;;19.86;76.76;93079.34;5050376;28;20187;-82
2023/10/23 08:37:55;;;;;;;45.17;16.67;;;;;;;19.36;78.09;93065.34;5044977;28;20215;-82
2023/10/23 08:40:22;;;;;;;35.90;15.57;;;;;;;19.76;75.81;93085.81;5041507;28;20188;-82
2023/10/23 08:42:48;;;;;;;42.43;14.93;;;;;;;19.69;76.14;93090.06;5044118;28;20191;-82
2023/10/23 08:45:16;;;;;;;30.30;15.33;;;;;;;19.44;77.44;93075.88;5048132;28;20192;-81
2023/10/23 08:47:42;;;;;;;23.40;15.90;;;;;;;19.27;78.26;93073.28;5047552;28;20182;-83
2023/10/23 08:50:08;;;;;;;42.93;16.57;;;;;;;18.70;80.96;93080.09;5050006;28;20206;-83
2023/10/23 08:52:38;;;;;;;30.33;15.93;;;;;;;18.98;80.39;93075.94;5042031;28;20187;-82
2023/10/23 08:55:10;;;;;;;40.07;17.50;;;;;;;19.20;78.75;93073.03;5042853;28;20282;-82
2023/10/23 08:57:36;;;;;;;39.67;18.20;;;;;;;18.74;80.82;93070.44;5044123;28;20202;-83
2023/10/23 09:00:01;;;;;;;43.17;17.33;;;;;;;18.56;82.00;93080.31;5047561;28;20234;-84
2023/10/23 09:02:30;;;;;;;34.37;16.50;;;;;;;18.42;83.45;93076.28;5046840;28;20203;-84
2023/10/23 09:04:55;;;;;;;43.97;16.37;;;;;;;18.63;82.21;93074.53;5043243;28;20229;-83
2023/10/23 09:07:21;;;;;;;34.70;16.67;;;;;;;18.91;81.22;93070.38;5048080;28;20195;-80
2023/10/23 09:09:46;;;;;;;41.90;16.07;;;;;;;19.05;80.68;93078.88;5049301;28;20215;-83
2023/10/23 09:12:30;;;;;;;30.23;15.63;;;;;;;19.03;81.26;93075.78;5049757;28;20197;-82
2023/10/23 09:14:56;;;;;;;34.53;17.03;;;;;;;19.37;79.89;93072.97;5048300;28;20227;-83
2023/10/23 09:17:23;;;;;;;29.53;16.50;;;;;;;19.60;77.41;93079.53;5049974;28;20203;-83
2023/10/23 09:19:48;;;;;;;38.93;16.83;;;;;;;19.59;77.48;93077.97;5048306;28;20232;-84
2023/10/23 09:22:14;;;;;;;32.83;16.30;;;;;;;19.91;76.65;93076.47;5046818;28;20199;-83
2023/10/23 09:24:40;;;;;;;35.03;16.37;;;;;;;19.73;77.39;93075.84;5034993;28;20220;-84
2023/10/23 09:27:06;;;;;;;25.77;15.63;;;;;;;19.73;77.65;93059.97;5041389;28;20183;-83
2023/10/23 09:29:31;;;;;;;24.10;14.50;;;;;;;20.31;73.60;93078.34;5047423;28;20221;-79
2023/10/23 09:31:58;;;;;;;23.17;15.40;;;;;;;20.41;73.08;93067.34;5032429;28;20190;-83
2023/10/23 09:34:24;;;;;;;32.57;14.67;;;;;;;20.56;72.60;93071.25;5044802;28;20262;-83
2023/10/23 09:36:51;;;;;;;37.20;15.20;;;;;;;20.55;72.79;93075.00;5038128;28;20250;-82
2023/10/23 09:39:17;;;;;;;29.70;14.27;;;;;;;20.43;72.16;93073.09;5032316;28;20237;-83
2023/10/23 09:41:45;;;;;;;34.77;13.97;;;;;;;20.16;74.10;93070.22;5044257;28;20605;-83
2023/10/23 09:44:13;;;;;;;31.63;15.60;;;;;;;19.87;74.55;93070.28;5048405;28;20221;-83
2023/10/23 09:46:39;;;;;;;35.30;14.17;;;;;;;19.92;75.34;93068.22;5034087;28;20216;-82
2023/10/23 09:49:05;;;;;;;25.10;13.97;;;;;;;20.29;72.98;93055.91;5047591;28;20422;-84
2023/10/23 09:51:38;;;;;;;30.37;13.73;;;;;;;20.40;72.91;93062.38;5039664;28;20207;-82
2023/10/23 09:54:17;;;;;;;31.30;14.07;;;;;;;20.52;72.07;93060.50;5034211;28;20230;-83
2023/10/23 09:56:51;;;;;;;28.83;14.73;;;;;;;20.44;71.85;93069.34;5048738;28;20181;-82
2023/10/23 09:59:20;;;;;;;26.47;13.80;;;;;;;20.51;71.46;93058.94;5047410;28;20217;-83
2023/10/23 10:01:50;;;;;;;31.30;15.10;;;;;;;20.82;70.60;93057.69;5048571;28;20177;-83
2023/10/23 10:04:36;;;;;;;55.05;13.73;;;;;;;20.99;69.43;93046.91;5045495;28;20254;-84
2023/10/23 10:07:26;;;;;;;36.38;13.50;;;;;;;20.81;69.50;93033.00;5048654;28;20193;-79
2023/10/23 10:09:51;;;;;;;20.45;13.02;;;;;;;20.79;69.31;93042.44;5048495;28;20220;-83
2023/10/23 10:12:18;;;;;;;22.92;12.77;;;;;;;20.57;70.44;93043.63;5044334;28;20257;-84
2023/10/23 10:14:46;;;;;;;32.63;13.97;;;;;;;20.57;70.24;93036.44;5047539;28;20225;-81
2023/10/23 10:17:13;;;;;;;26.60;13.02;;;;;;;20.69;70.08;93033.78;5038636;28;20193;-83
2023/10/23 10:19:40;;;;;;;26.25;13.77;;;;;;;20.89;70.00;93037.44;5041193;28;20268;-83
2023/10/23 10:22:17;;;;;;;21.70;13.50;;;;;;;21.08;69.21;93039.59;5048125;28;20181;-83
2023/10/23 10:24:43;;;;;;;28.02;14.05;;;;;;;20.69;70.48;93039.09;5034825;28;20281;-83
2023/10/23 10:27:10;;;;;;;27.75;13.45;;;;;;;20.62;69.76;93027.47;5047705;28;21151;-83
2023/10/23 10:29:35;;;;;;;27.40;14.70;;;;;;;20.64;70.46;93031.34;5044214;28;20848;-84
2023/10/23 10:32:10;;;;;;;29.00;13.77;;;;;;;20.81;70.30;93029.59;5047494;28;20186;-83
2023/10/23 10:34:37;;;;;;;29.65;14.68;;;;;;;21.48;67.18;93027.19;5047679;28;20236;-83
2023/10/23 10:37:05;;;;;;;37.67;14.25;;;;;;;21.24;68.53;93027.19;5047861;28;20197;-82
2023/10/23 10:39:46;;;;;;;21.17;13.57;;;;;;;21.60;66.80;93027.94;5047099;28;20213;-83
2023/10/23 10:42:18;;;;;;;34.00;13.98;;;;;;;21.69;66.96;93022.47;5047788;28;20252;-85
2023/10/23 10:45:14;;;;;;;25.90;14.55;;;;;;;21.55;66.11;93030.03;5043254;28;20229;-80
2023/10/23 10:47:45;;;;;;;30.33;14.10;;;;;;;21.34;67.78;93026.75;5043912;28;20197;-74
2023/10/23 10:50:11;;;;;;;25.58;14.02;;;;;;;21.19;68.13;93022.09;5041691;28;20190;-84
2023/10/23 10:52:39;;;;;;;33.30;14.15;;;;;;;20.95;68.80;93019.44;5042051;28;20197;-81
2023/10/23 10:55:05;;;;;;;31.85;14.15;;;;;;;21.22;68.03;93008.94;5051784;28;20202;-83
2023/10/23 10:57:31;;;;;;;26.58;13.68;;;;;;;21.66;66.80;93010.63;5050610;28;20188;-83
2023/10/23 11:00:01;;;;;;;26.42;13.43;;;;;;;21.75;65.31;92995.34;5050401;28;20220;-80
2023/10/23 11:02:26;;;;;;;33.35;13.65;;;;;;;21.70;65.15;93002.75;5049699;28;20179;-83
2023/10/23 11:04:52;;;;;;;42.03;13.90;;;;;;;20.65;68.62;92985.13;5044663;28;20234;-81
2023/10/23 11:07:22;;;;;;;31.77;14.32;;;;;;;20.40;70.04;92994.19;5050585;28;20176;-85
2023/10/23 11:09:49;;;;;;;29.77;13.45;;;;;;;20.72;69.36;92989.13;5051202;28;20229;-85
2023/10/23 11:12:17;;;;;;;33.83;13.75;;;;;;;21.11;68.27;92985.81;5046888;28;20238;-84
2023/10/23 11:14:43;;;;;;;31.80;13.57;;;;;;;21.29;67.48;92998.50;5043633;28;20368;-85